Rutledge, Missouri
Current Conditions -  °F | °C
As of 3:55 AM on Saturday 29 Nov 2014 (Local Time) from KIRK Reporting Station
Clear Clear  
Wind Chill: 43°   Ceiling: Unl
Heat Index: 48°   Visibility: 10mi
Dew Point: 42°   Wind: 10mph
Humidity: 80%   Direction: 210°SSW
Pressure: 29.67"   Gusts: NA
Location:  40.31°N, 92.09°W
Report Text: KIRK 290955Z AUTO 21009KT 10SM CLR 09/06 A2967 RMK AO2 SLP053 T00890056
Loading
Personal Weather Stations






























Interactive Weather Map New forecast layout! Learn more

10-Day Weather Forecast

Advertisements
Track Severe Weather on mobile